createdAt,value
2022-12-08T00:02:45.391Z,2.78
2022-12-08T00:08:06.142Z,2.82
2022-12-08T00:13:07.727Z,2.74
2022-12-08T00:18:09.198Z,2.72
2022-12-08T00:23:10.667Z,2.70
2022-12-08T00:28:12.180Z,2.65
2022-12-08T00:33:13.776Z,2.73
2022-12-08T00:38:15.375Z,2.73
2022-12-08T00:43:16.825Z,2.69
2022-12-08T00:48:18.362Z,2.65
2022-12-08T00:53:19.866Z,2.70
2022-12-08T00:58:21.389Z,2.74
2022-12-08T01:03:23.004Z,2.72
2022-12-08T01:08:24.664Z,2.67
2022-12-08T01:13:26.276Z,2.72
2022-12-08T01:18:28.729Z,2.69
2022-12-08T01:23:30.226Z,2.64
2022-12-08T01:28:32.343Z,2.54
2022-12-08T01:33:33.855Z,2.52
2022-12-08T01:38:35.446Z,2.50
2022-12-08T01:44:08.886Z,2.45
2022-12-08T01:49:29.802Z,2.45
2022-12-08T01:54:39.775Z,2.52
2022-12-08T02:00:01.237Z,2.56
2022-12-08T02:05:03.569Z,2.62
2022-12-08T02:10:06.122Z,2.64
2022-12-08T02:15:08.524Z,2.59
2022-12-08T02:20:16.376Z,2.54
2022-12-08T02:25:30.110Z,2.54
2022-12-08T02:30:37.600Z,2.51
2022-12-08T02:35:56.912Z,2.53
2022-12-08T02:41:16.501Z,2.54
2022-12-08T02:46:27.288Z,2.52
2022-12-08T02:51:28.786Z,2.48
2022-12-08T02:56:51.752Z,2.43
2022-12-08T03:02:16.552Z,2.49
2022-12-08T03:07:34.111Z,2.52
2022-12-08T03:12:50.563Z,2.55
2022-12-08T03:17:56.931Z,2.58
2022-12-08T03:23:00.606Z,2.63
2022-12-08T03:28:02.463Z,2.69
2022-12-08T03:33:11.899Z,2.76
2022-12-08T03:38:16.711Z,2.66
2022-12-08T03:43:18.184Z,2.45
2022-12-08T03:48:19.681Z,2.38
2022-12-08T03:53:21.210Z,2.40
2022-12-08T03:58:22.669Z,2.44
2022-12-08T04:03:24.246Z,2.48
2022-12-08T04:08:25.886Z,2.55
2022-12-08T04:13:27.743Z,2.58
2022-12-08T04:18:29.342Z,2.63
2022-12-08T04:23:30.798Z,2.60
2022-12-08T04:28:32.854Z,2.60
2022-12-08T04:33:35.231Z,2.58
2022-12-08T04:38:36.754Z,2.64
2022-12-08T04:43:38.236Z,2.60
2022-12-08T04:48:40.362Z,2.52
2022-12-08T04:53:46.265Z,2.51
2022-12-08T04:58:48.352Z,2.53
2022-12-08T05:03:49.824Z,2.49
2022-12-08T05:08:51.532Z,2.48
2022-12-08T05:13:53.064Z,2.44
2022-12-08T05:18:54.525Z,2.43
2022-12-08T05:23:55.981Z,2.37
2022-12-08T05:28:57.471Z,2.29
2022-12-08T05:34:02.982Z,2.27
2022-12-08T05:39:05.051Z,2.30
2022-12-08T05:44:06.723Z,2.34
2022-12-08T05:49:08.243Z,2.34
2022-12-08T05:54:09.727Z,2.30
2022-12-08T05:59:11.267Z,2.24
2022-12-08T06:04:12.847Z,2.25
2022-12-08T06:09:14.308Z,2.34
2022-12-08T06:14:15.927Z,2.41
2022-12-08T06:19:17.493Z,2.40
2022-12-08T06:24:18.999Z,2.36
2022-12-08T06:29:20.516Z,2.46
2022-12-08T06:34:22.013Z,2.42
2022-12-08T06:39:23.527Z,2.41
2022-12-08T06:44:25.014Z,2.40
2022-12-08T06:49:26.568Z,2.41
2022-12-08T06:54:28.130Z,2.42
2022-12-08T06:59:29.614Z,2.36
2022-12-08T07:04:31.325Z,2.34
2022-12-08T07:09:32.871Z,2.33
2022-12-08T07:14:34.375Z,2.38
2022-12-08T07:19:35.890Z,2.39
2022-12-08T07:24:37.397Z,2.43
2022-12-08T07:29:38.916Z,2.50
2022-12-08T07:34:40.415Z,2.53
2022-12-08T07:39:41.920Z,2.49
2022-12-08T07:44:43.385Z,2.49
2022-12-08T07:49:44.920Z,2.55
2022-12-08T07:54:47.464Z,2.54
2022-12-08T07:59:48.937Z,2.45
2022-12-08T08:04:51.065Z,2.49
2022-12-08T08:09:52.781Z,2.53
2022-12-08T08:14:54.242Z,2.45
2022-12-08T08:19:55.801Z,2.45
2022-12-08T08:24:57.308Z,2.46
2022-12-08T08:29:58.833Z,2.38
2022-12-08T08:35:01.532Z,2.35
2022-12-08T08:40:04.378Z,2.42
2022-12-08T08:45:06.447Z,2.43
2022-12-08T08:50:08.384Z,2.48
2022-12-08T08:55:10.216Z,2.49
2022-12-08T09:00:12.468Z,2.57
2022-12-08T09:05:13.996Z,2.56
2022-12-08T09:10:15.540Z,2.50
2022-12-08T09:15:17.454Z,2.45
2022-12-08T09:20:19.015Z,2.40
2022-12-08T09:25:20.553Z,2.36
2022-12-08T09:30:22.099Z,2.38
2022-12-08T09:35:23.535Z,2.35
2022-12-08T09:40:26.227Z,2.46
2022-12-08T09:45:33.373Z,2.52
2022-12-08T09:50:49.861Z,2.61
2022-12-08T09:55:58.804Z,2.62
2022-12-08T10:01:00.437Z,2.70
2022-12-08T10:06:08.212Z,2.81
2022-12-08T10:11:19.552Z,2.97
2022-12-08T10:16:29.841Z,3.10
2022-12-08T10:21:32.601Z,3.13
2022-12-08T10:26:34.107Z,3.11
2022-12-08T10:31:35.662Z,3.05
2022-12-08T10:36:58.653Z,2.90
2022-12-08T10:42:01.979Z,2.80
2022-12-08T10:47:12.398Z,2.73
2022-12-08T10:52:24.277Z,2.62
2022-12-08T10:57:25.793Z,2.59
2022-12-08T11:02:27.385Z,2.54
2022-12-08T11:07:29.424Z,2.63
2022-12-08T11:12:31.465Z,2.78
2022-12-08T11:17:41.209Z,3.14
2022-12-08T11:22:51.961Z,3.33
2022-12-08T11:28:01.254Z,3.46
2022-12-08T11:33:19.426Z,3.55
2022-12-08T11:38:22.660Z,3.46
2022-12-08T11:43:33.311Z,3.20
2022-12-08T11:49:06.733Z,3.20
2022-12-08T11:54:21.568Z,3.25
2022-12-08T11:59:29.682Z,3.32
2022-12-08T12:04:39.678Z,3.55
2022-12-08T12:10:02.790Z,3.77
2022-12-08T12:15:16.305Z,3.91
2022-12-08T12:20:28.370Z,3.76
2022-12-08T12:25:29.966Z,3.54
2022-12-08T12:31:00.987Z,3.43
2022-12-08T12:36:06.789Z,3.35
2022-12-08T12:41:10.097Z,3.45
2022-12-08T12:46:23.715Z,3.47
2022-12-08T12:51:47.649Z,3.42
2022-12-08T12:56:55.481Z,3.29
2022-12-08T13:01:57.178Z,3.16
2022-12-08T13:06:59.736Z,3.02
2022-12-08T13:12:09.841Z,2.89
2022-12-08T13:17:15.495Z,2.76
2022-12-08T13:23:07.920Z,2.73
2022-12-08T13:28:30.551Z,2.68
2022-12-08T13:33:41.229Z,2.71
2022-12-08T13:38:45.676Z,2.68
2022-12-08T13:51:45.352Z,2.53
2022-12-08T13:56:05.487Z,2.50
2022-12-08T14:00:19.867Z,2.49
2022-12-08T14:05:35.151Z,2.50
2022-12-08T14:10:42.615Z,2.47
2022-12-08T14:15:44.255Z,2.41
2022-12-08T14:21:20.374Z,2.37
2022-12-08T14:26:20.935Z,2.26
2022-12-08T14:31:22.784Z,2.27
2022-12-08T14:36:24.708Z,2.28
2022-12-08T14:41:32.475Z,2.30
2022-12-08T14:46:34.187Z,2.29
2022-12-08T14:51:36.884Z,2.21
2022-12-08T14:56:47.556Z,2.25
2022-12-08T15:01:52.031Z,2.35
2022-12-08T15:07:00.865Z,2.42
2022-12-08T15:12:12.340Z,2.39
2022-12-08T15:17:44.890Z,2.29
2022-12-08T15:22:46.404Z,2.28
2022-12-08T15:27:50.798Z,2.25
2022-12-08T15:32:54.191Z,2.18
2022-12-08T15:37:55.830Z,2.24
2022-12-08T15:42:57.333Z,2.24
2022-12-08T15:47:58.800Z,2.20
2022-12-08T15:53:01.147Z,2.17
2022-12-08T15:58:52.366Z,2.14
2022-12-08T16:08:56.141Z,2.02
2022-12-08T16:14:36.848Z,2.05
2022-12-08T16:19:29.127Z,2.07
2022-12-08T16:24:30.727Z,2.08
2022-12-08T16:29:32.277Z,2.09
2022-12-08T16:34:33.794Z,2.15
2022-12-08T16:39:39.895Z,2.12
2022-12-08T16:44:45.614Z,2.13
2022-12-08T16:49:47.076Z,2.11
2022-12-08T16:54:48.754Z,2.05
2022-12-08T16:59:50.283Z,2.04
2022-12-08T17:04:51.861Z,1.93
2022-12-08T17:09:53.422Z,1.87
2022-12-08T17:14:54.940Z,1.80
2022-12-08T17:19:56.409Z,1.79
2022-12-08T17:24:58.198Z,1.70
2022-12-08T17:30:00.886Z,1.80
2022-12-08T17:35:02.676Z,1.85
2022-12-08T17:40:05.417Z,1.85
2022-12-08T17:45:08.495Z,1.80
2022-12-08T17:50:10.528Z,1.84
2022-12-08T17:55:12.173Z,1.83
2022-12-08T18:00:14.152Z,1.83
2022-12-08T18:05:15.684Z,1.82
2022-12-08T18:10:17.912Z,1.85
2022-12-08T18:15:20.708Z,1.82
2022-12-08T18:20:22.285Z,1.82
2022-12-08T18:25:23.866Z,1.80
2022-12-08T18:30:25.361Z,1.85
2022-12-08T18:35:28.687Z,1.86
2022-12-08T18:40:30.476Z,1.79
2022-12-08T18:45:32.218Z,1.79
2022-12-08T18:50:33.776Z,1.79
2022-12-08T18:55:37.406Z,1.83
2022-12-08T19:00:38.934Z,1.80
2022-12-08T19:05:40.450Z,1.81
2022-12-08T19:10:42.108Z,1.80
2022-12-08T19:15:43.649Z,1.66
2022-12-08T19:20:45.552Z,1.63
2022-12-08T19:25:47.146Z,1.59
2022-12-08T19:30:48.746Z,1.59
2022-12-08T19:35:52.622Z,1.63
2022-12-08T19:41:12.976Z,1.68
2022-12-08T19:46:14.615Z,1.65
2022-12-08T19:51:16.260Z,1.65
2022-12-08T19:56:17.966Z,1.53
2022-12-08T20:01:19.540Z,1.46
2022-12-08T20:06:23.282Z,1.40
2022-12-08T20:11:24.833Z,1.36
2022-12-08T20:16:26.434Z,1.30
2022-12-08T20:21:28.394Z,1.41
2022-12-08T20:26:29.942Z,1.51
2022-12-08T20:31:33.281Z,1.55
2022-12-08T20:36:35.092Z,1.61
2022-12-08T20:41:39.258Z,1.64
2022-12-08T20:46:44.979Z,1.69
2022-12-08T20:51:49.919Z,1.70
2022-12-08T20:56:51.616Z,1.71
2022-12-08T21:01:53.965Z,1.70
2022-12-08T21:06:56.048Z,1.71
2022-12-08T21:11:57.550Z,1.74
2022-12-08T21:16:59.436Z,1.75
2022-12-08T21:22:01.255Z,1.74
2022-12-08T21:27:02.916Z,1.77
2022-12-08T21:32:04.669Z,1.72
2022-12-08T21:37:06.244Z,1.73
2022-12-08T21:42:34.615Z,1.72
2022-12-08T21:47:36.616Z,1.74
2022-12-08T21:52:44.708Z,1.77
2022-12-08T21:57:46.397Z,1.77
2022-12-08T22:02:47.977Z,1.78
2022-12-08T22:07:50.095Z,1.79
2022-12-08T22:12:51.986Z,1.76
2022-12-08T22:17:53.529Z,1.78
2022-12-08T22:22:55.282Z,1.79
2022-12-08T22:27:57.032Z,1.72
2022-12-08T22:32:58.584Z,1.73
2022-12-08T22:38:00.047Z,1.77
2022-12-08T22:43:01.689Z,1.76
2022-12-08T22:48:03.256Z,1.78
2022-12-08T22:53:05.380Z,1.77
2022-12-08T22:58:06.840Z,1.74
2022-12-08T23:03:08.616Z,1.71
2022-12-08T23:08:14.597Z,1.59
2022-12-08T23:13:16.288Z,1.40
2022-12-08T23:18:21.591Z,1.23
2022-12-08T23:23:23.171Z,1.09
2022-12-08T23:28:24.885Z,0.96
2022-12-08T23:33:26.420Z,0.85
2022-12-08T23:38:28.152Z,0.72
2022-12-08T23:43:29.951Z,0.65
2022-12-08T23:48:34.628Z,0.55
2022-12-08T23:53:37.292Z,0.44
2022-12-08T23:58:39.130Z,0.42
